Terminal Aerodrome Forecast
Issued by NWS

Home | Current Version | Previous Version | Graphics & Text | Print | Product List | Glossary On
Versions: 1 2 3 4 5 6 7 8 9 10 11 12 13 14 15 16 17 18 19
000
FTUS43 KIWX 120100 AAA
TAFSBN
TAF AMD
KSBN 120159Z 1202/1224 34008KT 3SM BR BKN008 OVC020
     FM120330 02004KT P6SM OVC025
     FM121400 05010KT P6SM BKN030=

USA.gov is the U.S. government's official web portal to all federal, state and local government web resources and services.